sensor_id;sensor_type;location;lat;lon;timestamp;P1;durP1;ratioP1;P2;durP2;ratioP2
4208;SDS011;36320;48.860;2.380;2022-12-11T00:00:56;8.70;;;2.47;;
4208;SDS011;36320;48.860;2.380;2022-12-11T00:03:22;8.60;;;2.70;;
4208;SDS011;36320;48.860;2.380;2022-12-11T00:05:47;9.35;;;2.47;;
4208;SDS011;36320;48.860;2.380;2022-12-11T00:08:13;14.23;;;2.80;;
4208;SDS011;36320;48.860;2.380;2022-12-11T00:10:39;8.43;;;2.97;;
4208;SDS011;36320;48.860;2.380;2022-12-11T00:13:13;8.83;;;1.87;;
4208;SDS011;36320;48.860;2.380;2022-12-11T00:15:39;9.98;;;2.80;;
4208;SDS011;36320;48.860;2.380;2022-12-11T00:18:05;10.80;;;2.50;;
4208;SDS011;36320;48.860;2.380;2022-12-11T00:20:30;7.07;;;1.90;;
4208;SDS011;36320;48.860;2.380;2022-12-11T00:22:56;7.95;;;2.05;;
4208;SDS011;36320;48.860;2.380;2022-12-11T00:25:22;8.93;;;2.50;;
4208;SDS011;36320;48.860;2.380;2022-12-11T00:27:48;7.65;;;2.40;;
4208;SDS011;36320;48.860;2.380;2022-12-11T00:30:13;9.93;;;2.10;;
4208;SDS011;36320;48.860;2.380;2022-12-11T00:32:42;8.30;;;2.37;;
4208;SDS011;36320;48.860;2.380;2022-12-11T00:35:08;13.88;;;2.30;;
4208;SDS011;36320;48.860;2.380;2022-12-11T00:37:34;6.80;;;1.65;;
4208;SDS011;36320;48.860;2.380;2022-12-11T00:39:59;8.03;;;2.40;;
4208;SDS011;36320;48.860;2.380;2022-12-11T00:42:25;7.45;;;2.00;;
4208;SDS011;36320;48.860;2.380;2022-12-11T00:44:51;7.20;;;2.20;;
4208;SDS011;36320;48.860;2.380;2022-12-11T00:47:17;13.85;;;3.15;;
4208;SDS011;36320;48.860;2.380;2022-12-11T00:49:43;10.10;;;2.63;;
4208;SDS011;36320;48.860;2.380;2022-12-11T00:52:09;8.70;;;2.30;;
4208;SDS011;36320;48.860;2.380;2022-12-11T00:54:35;8.32;;;2.42;;
4208;SDS011;36320;48.860;2.380;2022-12-11T00:57:00;6.83;;;1.60;;
4208;SDS011;36320;48.860;2.380;2022-12-11T00:59:27;8.00;;;2.00;;
4208;SDS011;36320;48.860;2.380;2022-12-11T01:01:53;8.98;;;1.92;;
4208;SDS011;36320;48.860;2.380;2022-12-11T01:04:18;8.50;;;2.20;;
4208;SDS011;36320;48.860;2.380;2022-12-11T01:06:44;7.60;;;2.20;;
4208;SDS011;36320;48.860;2.380;2022-12-11T01:09:10;7.30;;;2.00;;
4208;SDS011;36320;48.860;2.380;2022-12-11T01:11:54;10.70;;;2.33;;
4208;SDS011;36320;48.860;2.380;2022-12-11T01:14:20;11.40;;;2.20;;
4208;SDS011;36320;48.860;2.380;2022-12-11T01:16:45;8.32;;;2.55;;
4208;SDS011;36320;48.860;2.380;2022-12-11T01:19:11;13.23;;;2.20;;
4208;SDS011;36320;48.860;2.380;2022-12-11T01:21:36;7.35;;;2.17;;
4208;SDS011;36320;48.860;2.380;2022-12-11T01:24:02;9.43;;;2.63;;
4208;SDS011;36320;48.860;2.380;2022-12-11T01:26:28;7.88;;;1.90;;
4208;SDS011;36320;48.860;2.380;2022-12-11T01:28:54;6.60;;;2.03;;
4208;SDS011;36320;48.860;2.380;2022-12-11T01:31:20;9.68;;;2.60;;
4208;SDS011;36320;48.860;2.380;2022-12-11T01:33:46;7.17;;;1.80;;
4208;SDS011;36320;48.860;2.380;2022-12-11T01:36:13;7.70;;;2.13;;
4208;SDS011;36320;48.860;2.380;2022-12-11T01:38:44;6.28;;;1.50;;
4208;SDS011;36320;48.860;2.380;2022-12-11T01:41:10;8.32;;;1.70;;
4208;SDS011;36320;48.860;2.380;2022-12-11T01:46:28;6.63;;;1.73;;
4208;SDS011;36320;48.860;2.380;2022-12-11T01:48:55;8.43;;;2.05;;
4208;SDS011;36320;48.860;2.380;2022-12-11T01:51:21;8.07;;;1.73;;
4208;SDS011;36320;48.860;2.380;2022-12-11T01:53:50;8.05;;;1.80;;
4208;SDS011;36320;48.860;2.380;2022-12-11T01:56:22;10.38;;;2.20;;
4208;SDS011;36320;48.860;2.380;2022-12-11T01:58:50;6.15;;;1.55;;
4208;SDS011;36320;48.860;2.380;2022-12-11T02:01:28;7.28;;;1.65;;
4208;SDS011;36320;48.860;2.380;2022-12-11T02:03:57;7.90;;;2.40;;
4208;SDS011;36320;48.860;2.380;2022-12-11T02:06:32;7.60;;;2.00;;
4208;SDS011;36320;48.860;2.380;2022-12-11T02:09:03;9.77;;;2.30;;
4208;SDS011;36320;48.860;2.380;2022-12-11T02:11:55;8.90;;;2.00;;
4208;SDS011;36320;48.860;2.380;2022-12-11T02:20:29;8.20;;;2.00;;
4208;SDS011;36320;48.860;2.380;2022-12-11T02:25:49;7.05;;;1.48;;
4208;SDS011;36320;48.860;2.380;2022-12-11T02:28:42;7.60;;;1.60;;
4208;SDS011;36320;48.860;2.380;2022-12-11T02:37:11;7.18;;;1.90;;
4208;SDS011;36320;48.860;2.380;2022-12-11T02:39:40;7.85;;;2.30;;
4208;SDS011;36320;48.860;2.380;2022-12-11T02:42:09;6.82;;;1.55;;
4208;SDS011;36320;48.860;2.380;2022-12-11T02:44:37;8.20;;;1.88;;
4208;SDS011;36320;48.860;2.380;2022-12-11T02:47:06;6.93;;;1.58;;
4208;SDS011;36320;48.860;2.380;2022-12-11T02:49:37;8.90;;;1.35;;
4208;SDS011;36320;48.860;2.380;2022-12-11T02:52:05;7.10;;;1.45;;
4208;SDS011;36320;48.860;2.380;2022-12-11T02:54:32;5.32;;;1.33;;
4208;SDS011;36320;48.860;2.380;2022-12-11T02:57:04;7.43;;;1.55;;
4208;SDS011;36320;48.860;2.380;2022-12-11T02:59:37;5.40;;;1.13;;
4208;SDS011;36320;48.860;2.380;2022-12-11T03:02:05;7.50;;;2.10;;
4208;SDS011;36320;48.860;2.380;2022-12-11T03:04:31;6.00;;;1.60;;
4208;SDS011;36320;48.860;2.380;2022-12-11T03:07:01;8.40;;;2.10;;
4208;SDS011;36320;48.860;2.380;2022-12-11T03:09:37;10.20;;;1.80;;
4208;SDS011;36320;48.860;2.380;2022-12-11T03:12:07;7.85;;;2.10;;
4208;SDS011;36320;48.860;2.380;2022-12-11T03:14:36;6.20;;;1.80;;
4208;SDS011;36320;48.860;2.380;2022-12-11T03:20:05;7.40;;;2.20;;
4208;SDS011;36320;48.860;2.380;2022-12-11T03:22:50;5.70;;;1.50;;
4208;SDS011;36320;48.860;2.380;2022-12-11T03:25:22;5.70;;;1.10;;
4208;SDS011;36320;48.860;2.380;2022-12-11T03:27:57;5.82;;;1.20;;
4208;SDS011;36320;48.860;2.380;2022-12-11T03:30:53;4.97;;;1.15;;
4208;SDS011;36320;48.860;2.380;2022-12-11T03:35:56;6.03;;;1.57;;
4208;SDS011;36320;48.860;2.380;2022-12-11T03:38:30;6.55;;;1.77;;
4208;SDS011;36320;48.860;2.380;2022-12-11T03:41:01;5.75;;;1.33;;
4208;SDS011;36320;48.860;2.380;2022-12-11T03:43:28;5.65;;;1.30;;
4208;SDS011;36320;48.860;2.380;2022-12-11T03:45:56;7.30;;;1.70;;
4208;SDS011;36320;48.860;2.380;2022-12-11T03:48:24;7.43;;;1.80;;
4208;SDS011;36320;48.860;2.380;2022-12-11T03:50:57;6.57;;;1.50;;
4208;SDS011;36320;48.860;2.380;2022-12-11T03:53:25;10.30;;;1.70;;
4208;SDS011;36320;48.860;2.380;2022-12-11T03:55:51;5.90;;;1.70;;
4208;SDS011;36320;48.860;2.380;2022-12-11T03:58:18;6.38;;;1.58;;
4208;SDS011;36320;48.860;2.380;2022-12-11T04:00:43;10.20;;;2.30;;
4208;SDS011;36320;48.860;2.380;2022-12-11T04:03:09;6.00;;;1.60;;
4208;SDS011;36320;48.860;2.380;2022-12-11T04:05:38;6.50;;;1.50;;
4208;SDS011;36320;48.860;2.380;2022-12-11T04:08:22;7.00;;;1.60;;
4208;SDS011;36320;48.860;2.380;2022-12-11T04:10:48;6.87;;;1.57;;
4208;SDS011;36320;48.860;2.380;2022-12-11T04:13:37;6.57;;;1.70;;
4208;SDS011;36320;48.860;2.380;2022-12-11T04:16:04;8.23;;;1.30;;
4208;SDS011;36320;48.860;2.380;2022-12-11T04:18:30;5.95;;;1.67;;
4208;SDS011;36320;48.860;2.380;2022-12-11T04:21:14;7.40;;;2.30;;
4208;SDS011;36320;48.860;2.380;2022-12-11T04:23:58;9.00;;;1.33;;
4208;SDS011;36320;48.860;2.380;2022-12-11T04:26:39;7.70;;;1.60;;
4208;SDS011;36320;48.860;2.380;2022-12-11T04:29:05;6.60;;;1.60;;
4208;SDS011;36320;48.860;2.380;2022-12-11T04:31:31;6.47;;;2.17;;
4208;SDS011;36320;48.860;2.380;2022-12-11T04:33:57;6.27;;;1.47;;
4208;SDS011;36320;48.860;2.380;2022-12-11T04:36:22;7.57;;;1.83;;
4208;SDS011;36320;48.860;2.380;2022-12-11T04:38:48;5.47;;;1.10;;
4208;SDS011;36320;48.860;2.380;2022-12-11T04:41:15;6.10;;;1.90;;
4208;SDS011;36320;48.860;2.380;2022-12-11T04:43:41;7.90;;;1.30;;
4208;SDS011;36320;48.860;2.380;2022-12-11T04:48:40;6.80;;;1.90;;
4208;SDS011;36320;48.860;2.380;2022-12-11T04:51:07;7.10;;;1.90;;
4208;SDS011;36320;48.860;2.380;2022-12-11T04:53:33;5.70;;;1.30;;
4208;SDS011;36320;48.860;2.380;2022-12-11T04:56:00;5.60;;;1.30;;
4208;SDS011;36320;48.860;2.380;2022-12-11T04:58:25;6.10;;;1.50;;
4208;SDS011;36320;48.860;2.380;2022-12-11T05:00:51;5.90;;;1.27;;
4208;SDS011;36320;48.860;2.380;2022-12-11T05:03:17;7.50;;;1.48;;
4208;SDS011;36320;48.860;2.380;2022-12-11T05:05:47;5.50;;;1.27;;
4208;SDS011;36320;48.860;2.380;2022-12-11T05:08:14;6.88;;;1.70;;
4208;SDS011;36320;48.860;2.380;2022-12-11T05:10:41;5.55;;;1.27;;
4208;SDS011;36320;48.860;2.380;2022-12-11T05:13:07;6.80;;;1.80;;
4208;SDS011;36320;48.860;2.380;2022-12-11T05:15:32;6.50;;;1.50;;
4208;SDS011;36320;48.860;2.380;2022-12-11T05:17:58;5.90;;;1.57;;
4208;SDS011;36320;48.860;2.380;2022-12-11T05:20:24;7.70;;;1.52;;
4208;SDS011;36320;48.860;2.380;2022-12-11T05:22:49;5.73;;;1.60;;
4208;SDS011;36320;48.860;2.380;2022-12-11T05:25:15;6.28;;;1.30;;
4208;SDS011;36320;48.860;2.380;2022-12-11T05:27:41;5.93;;;1.48;;
4208;SDS011;36320;48.860;2.380;2022-12-11T05:30:08;6.37;;;1.80;;
4208;SDS011;36320;48.860;2.380;2022-12-11T05:32:34;5.57;;;1.30;;
4208;SDS011;36320;48.860;2.380;2022-12-11T05:35:00;5.20;;;1.20;;
4208;SDS011;36320;48.860;2.380;2022-12-11T05:37:26;7.00;;;1.70;;
4208;SDS011;36320;48.860;2.380;2022-12-11T05:39:52;6.97;;;1.77;;
4208;SDS011;36320;48.860;2.380;2022-12-11T05:42:18;6.30;;;1.30;;
4208;SDS011;36320;48.860;2.380;2022-12-11T05:44:43;6.68;;;1.83;;
4208;SDS011;36320;48.860;2.380;2022-12-11T05:47:09;6.70;;;1.70;;
4208;SDS011;36320;48.860;2.380;2022-12-11T05:49:35;5.90;;;1.20;;
4208;SDS011;36320;48.860;2.380;2022-12-11T05:52:00;7.17;;;1.73;;
4208;SDS011;36320;48.860;2.380;2022-12-11T05:54:26;6.82;;;1.80;;
4208;SDS011;36320;48.860;2.380;2022-12-11T05:56:51;6.20;;;1.70;;
4208;SDS011;36320;48.860;2.380;2022-12-11T05:59:17;6.10;;;1.57;;
4208;SDS011;36320;48.860;2.380;2022-12-11T06:01:43;8.73;;;1.70;;
4208;SDS011;36320;48.860;2.380;2022-12-11T06:04:10;9.13;;;1.83;;
4208;SDS011;36320;48.860;2.380;2022-12-11T06:06:36;5.90;;;1.63;;
4208;SDS011;36320;48.860;2.380;2022-12-11T06:09:02;7.65;;;1.90;;
4208;SDS011;36320;48.860;2.380;2022-12-11T06:11:30;5.70;;;1.50;;
4208;SDS011;36320;48.860;2.380;2022-12-11T06:13:57;6.47;;;1.52;;
4208;SDS011;36320;48.860;2.380;2022-12-11T06:16:23;7.20;;;1.67;;
4208;SDS011;36320;48.860;2.380;2022-12-11T06:18:49;9.90;;;1.83;;
4208;SDS011;36320;48.860;2.380;2022-12-11T06:21:17;7.70;;;1.87;;
4208;SDS011;36320;48.860;2.380;2022-12-11T06:23:45;6.80;;;1.40;;
4208;SDS011;36320;48.860;2.380;2022-12-11T06:26:12;9.25;;;2.15;;
4208;SDS011;36320;48.860;2.380;2022-12-11T06:28:39;6.35;;;1.88;;
4208;SDS011;36320;48.860;2.380;2022-12-11T06:31:05;6.82;;;1.50;;
4208;SDS011;36320;48.860;2.380;2022-12-11T06:33:31;11.73;;;2.63;;
4208;SDS011;36320;48.860;2.380;2022-12-11T06:36:02;7.30;;;1.92;;
4208;SDS011;36320;48.860;2.380;2022-12-11T06:38:28;6.50;;;1.70;;
4208;SDS011;36320;48.860;2.380;2022-12-11T06:40:55;7.03;;;2.20;;
4208;SDS011;36320;48.860;2.380;2022-12-11T06:43:22;9.98;;;2.30;;
4208;SDS011;36320;48.860;2.380;2022-12-11T06:45:48;7.25;;;2.00;;
4208;SDS011;36320;48.860;2.380;2022-12-11T06:48:14;10.10;;;2.53;;
4208;SDS011;36320;48.860;2.380;2022-12-11T06:50:40;6.60;;;2.10;;
4208;SDS011;36320;48.860;2.380;2022-12-11T06:53:05;7.30;;;2.00;;
4208;SDS011;36320;48.860;2.380;2022-12-11T06:55:33;10.55;;;2.25;;
4208;SDS011;36320;48.860;2.380;2022-12-11T06:58:00;9.53;;;2.50;;
4208;SDS011;36320;48.860;2.380;2022-12-11T07:00:25;8.52;;;2.45;;
4208;SDS011;36320;48.860;2.380;2022-12-11T07:02:51;10.25;;;2.75;;
4208;SDS011;36320;48.860;2.380;2022-12-11T07:05:17;9.40;;;3.07;;
4208;SDS011;36320;48.860;2.380;2022-12-11T07:07:43;13.00;;;3.17;;
4208;SDS011;36320;48.860;2.380;2022-12-11T07:10:09;7.38;;;2.47;;
4208;SDS011;36320;48.860;2.380;2022-12-11T07:12:35;8.77;;;2.40;;
4208;SDS011;36320;48.860;2.380;2022-12-11T07:15:01;9.65;;;2.60;;
4208;SDS011;36320;48.860;2.380;2022-12-11T07:17:27;12.07;;;2.88;;
4208;SDS011;36320;48.860;2.380;2022-12-11T07:19:53;7.00;;;1.90;;
4208;SDS011;36320;48.860;2.380;2022-12-11T07:22:20;10.20;;;3.27;;
4208;SDS011;36320;48.860;2.380;2022-12-11T07:24:45;10.05;;;2.38;;
4208;SDS011;36320;48.860;2.380;2022-12-11T07:27:14;9.05;;;2.28;;
4208;SDS011;36320;48.860;2.380;2022-12-11T07:29:40;14.93;;;2.92;;
4208;SDS011;36320;48.860;2.380;2022-12-11T07:32:05;15.15;;;3.97;;
4208;SDS011;36320;48.860;2.380;2022-12-11T07:34:31;10.43;;;2.93;;
4208;SDS011;36320;48.860;2.380;2022-12-11T07:36:57;9.20;;;2.22;;
4208;SDS011;36320;48.860;2.380;2022-12-11T07:39:22;10.85;;;3.28;;
4208;SDS011;36320;48.860;2.380;2022-12-11T07:41:48;13.30;;;2.63;;
4208;SDS011;36320;48.860;2.380;2022-12-11T07:44:14;12.27;;;2.07;;
4208;SDS011;36320;48.860;2.380;2022-12-11T07:46:39;7.38;;;2.65;;
4208;SDS011;36320;48.860;2.380;2022-12-11T07:49:07;8.10;;;2.30;;
4208;SDS011;36320;48.860;2.380;2022-12-11T07:51:34;11.23;;;2.90;;
4208;SDS011;36320;48.860;2.380;2022-12-11T07:54:02;10.70;;;3.50;;
4208;SDS011;36320;48.860;2.380;2022-12-11T07:56:30;9.40;;;2.80;;
4208;SDS011;36320;48.860;2.380;2022-12-11T07:59:00;8.68;;;2.22;;
4208;SDS011;36320;48.860;2.380;2022-12-11T08:01:27;8.10;;;2.90;;
4208;SDS011;36320;48.860;2.380;2022-12-11T08:03:54;9.15;;;2.78;;
4208;SDS011;36320;48.860;2.380;2022-12-11T08:06:25;13.90;;;3.20;;
4208;SDS011;36320;48.860;2.380;2022-12-11T08:08:53;9.82;;;2.85;;
4208;SDS011;36320;48.860;2.380;2022-12-11T08:11:19;7.53;;;1.93;;
4208;SDS011;36320;48.860;2.380;2022-12-11T08:13:44;10.45;;;3.08;;
4208;SDS011;36320;48.860;2.380;2022-12-11T08:16:12;11.18;;;3.70;;
4208;SDS011;36320;48.860;2.380;2022-12-11T08:18:38;6.80;;;2.00;;
4208;SDS011;36320;48.860;2.380;2022-12-11T08:21:05;12.32;;;3.20;;
4208;SDS011;36320;48.860;2.380;2022-12-11T08:23:32;17.40;;;2.80;;
4208;SDS011;36320;48.860;2.380;2022-12-11T08:25:57;9.13;;;2.50;;
4208;SDS011;36320;48.860;2.380;2022-12-11T08:28:28;17.95;;;5.53;;
4208;SDS011;36320;48.860;2.380;2022-12-11T08:30:55;15.55;;;5.00;;
4208;SDS011;36320;48.860;2.380;2022-12-11T08:33:21;19.27;;;6.40;;
4208;SDS011;36320;48.860;2.380;2022-12-11T08:35:47;18.67;;;6.15;;
4208;SDS011;36320;48.860;2.380;2022-12-11T08:38:13;17.70;;;5.85;;
4208;SDS011;36320;48.860;2.380;2022-12-11T08:40:39;16.90;;;5.65;;
4208;SDS011;36320;48.860;2.380;2022-12-11T08:43:07;18.55;;;6.18;;
4208;SDS011;36320;48.860;2.380;2022-12-11T08:45:33;14.93;;;5.13;;
4208;SDS011;36320;48.860;2.380;2022-12-11T08:47:59;17.08;;;5.30;;
4208;SDS011;36320;48.860;2.380;2022-12-11T08:50:26;19.75;;;6.78;;
4208;SDS011;36320;48.860;2.380;2022-12-11T08:52:53;16.23;;;5.50;;
4208;SDS011;36320;48.860;2.380;2022-12-11T08:55:21;19.13;;;5.55;;
4208;SDS011;36320;48.860;2.380;2022-12-11T08:57:49;17.20;;;5.20;;
4208;SDS011;36320;48.860;2.380;2022-12-11T09:00:15;16.90;;;5.47;;
4208;SDS011;36320;48.860;2.380;2022-12-11T09:02:42;16.23;;;4.93;;
4208;SDS011;36320;48.860;2.380;2022-12-11T09:05:08;14.47;;;5.00;;
4208;SDS011;36320;48.860;2.380;2022-12-11T09:07:34;17.25;;;5.47;;
4208;SDS011;36320;48.860;2.380;2022-12-11T09:10:01;16.42;;;5.20;;
4208;SDS011;36320;48.860;2.380;2022-12-11T09:12:28;16.63;;;6.13;;
4208;SDS011;36320;48.860;2.380;2022-12-11T09:14:54;16.35;;;5.60;;
4208;SDS011;36320;48.860;2.380;2022-12-11T09:17:19;15.32;;;5.80;;
4208;SDS011;36320;48.860;2.380;2022-12-11T09:19:45;15.27;;;5.40;;
4208;SDS011;36320;48.860;2.380;2022-12-11T09:22:11;15.50;;;4.97;;
4208;SDS011;36320;48.860;2.380;2022-12-11T09:24:37;16.25;;;5.55;;
4208;SDS011;36320;48.860;2.380;2022-12-11T09:27:04;21.47;;;5.73;;
4208;SDS011;36320;48.860;2.380;2022-12-11T09:29:30;16.02;;;5.18;;
4208;SDS011;36320;48.860;2.380;2022-12-11T09:31:56;13.20;;;4.68;;
4208;SDS011;36320;48.860;2.380;2022-12-11T09:34:22;13.32;;;4.50;;
4208;SDS011;36320;48.860;2.380;2022-12-11T09:36:47;15.97;;;5.20;;
4208;SDS011;36320;48.860;2.380;2022-12-11T09:39:14;15.88;;;4.88;;
4208;SDS011;36320;48.860;2.380;2022-12-11T09:44:42;15.02;;;4.78;;
4208;SDS011;36320;48.860;2.380;2022-12-11T09:52:39;17.20;;;5.00;;
4208;SDS011;36320;48.860;2.380;2022-12-11T09:55:31;15.65;;;4.82;;
4208;SDS011;36320;48.860;2.380;2022-12-11T12:17:54;13.80;;;4.13;;
4208;SDS011;36320;48.860;2.380;2022-12-11T12:20:39;12.85;;;4.70;;
4208;SDS011;36320;48.860;2.380;2022-12-11T12:26:23;13.75;;;4.60;;
4208;SDS011;36320;48.860;2.380;2022-12-11T12:45:24;13.20;;;4.63;;
4208;SDS011;36320;48.860;2.380;2022-12-11T12:47:57;13.90;;;4.20;;
4208;SDS011;36320;48.860;2.380;2022-12-11T12:50:25;12.63;;;4.50;;
4208;SDS011;36320;48.860;2.380;2022-12-11T12:53:01;14.30;;;4.90;;
4208;SDS011;36320;48.860;2.380;2022-12-11T12:55:33;15.50;;;4.85;;
4208;SDS011;36320;48.860;2.380;2022-12-11T12:58:05;13.55;;;5.05;;
4208;SDS011;36320;48.860;2.380;2022-12-11T13:00:39;13.82;;;4.75;;
4208;SDS011;36320;48.860;2.380;2022-12-11T13:03:21;14.55;;;5.03;;
4208;SDS011;36320;48.860;2.380;2022-12-11T13:08:48;15.25;;;5.15;;
4208;SDS011;36320;48.860;2.380;2022-12-11T13:11:32;15.88;;;5.10;;
4208;SDS011;36320;48.860;2.380;2022-12-11T13:14:02;13.50;;;4.40;;
4208;SDS011;36320;48.860;2.380;2022-12-11T13:16:48;15.00;;;4.80;;
4208;SDS011;36320;48.860;2.380;2022-12-11T13:24:31;13.25;;;4.70;;
4208;SDS011;36320;48.860;2.380;2022-12-11T13:27:08;15.85;;;5.20;;
4208;SDS011;36320;48.860;2.380;2022-12-11T13:29:36;16.38;;;5.35;;
4208;SDS011;36320;48.860;2.380;2022-12-11T13:34:36;14.20;;;4.70;;
4208;SDS011;36320;48.860;2.380;2022-12-11T13:37:04;13.63;;;5.00;;
4208;SDS011;36320;48.860;2.380;2022-12-11T13:39:33;13.57;;;4.80;;
4208;SDS011;36320;48.860;2.380;2022-12-11T13:42:05;13.23;;;4.63;;
4208;SDS011;36320;48.860;2.380;2022-12-11T13:44:45;16.67;;;5.03;;
4208;SDS011;36320;48.860;2.380;2022-12-11T13:47:13;13.88;;;5.35;;
4208;SDS011;36320;48.860;2.380;2022-12-11T13:49:45;15.70;;;5.20;;
4208;SDS011;36320;48.860;2.380;2022-12-11T13:52:19;18.42;;;5.28;;
4208;SDS011;36320;48.860;2.380;2022-12-11T13:54:47;12.77;;;4.27;;
4208;SDS011;36320;48.860;2.380;2022-12-11T13:57:16;14.65;;;4.70;;
4208;SDS011;36320;48.860;2.380;2022-12-11T13:59:49;14.30;;;5.23;;
4208;SDS011;36320;48.860;2.380;2022-12-11T14:02:28;15.52;;;4.45;;
4208;SDS011;36320;48.860;2.380;2022-12-11T14:05:07;14.82;;;5.20;;
4208;SDS011;36320;48.860;2.380;2022-12-11T14:07:36;15.65;;;4.90;;
4208;SDS011;36320;48.860;2.380;2022-12-11T14:10:23;13.55;;;4.45;;
4208;SDS011;36320;48.860;2.380;2022-12-11T14:13:03;13.70;;;4.10;;
4208;SDS011;36320;48.860;2.380;2022-12-11T14:15:31;14.05;;;4.53;;
4208;SDS011;36320;48.860;2.380;2022-12-11T14:17:59;13.07;;;4.60;;
4208;SDS011;36320;48.860;2.380;2022-12-11T14:20:30;12.43;;;4.07;;
4208;SDS011;36320;48.860;2.380;2022-12-11T14:23:12;16.42;;;4.95;;
4208;SDS011;36320;48.860;2.380;2022-12-11T14:25:50;14.73;;;5.40;;
4208;SDS011;36320;48.860;2.380;2022-12-11T14:28:39;13.70;;;4.55;;
4208;SDS011;36320;48.860;2.380;2022-12-11T14:31:06;13.40;;;4.43;;
4208;SDS011;36320;48.860;2.380;2022-12-11T14:33:36;16.80;;;5.35;;
4208;SDS011;36320;48.860;2.380;2022-12-11T14:36:06;13.83;;;4.70;;
4208;SDS011;36320;48.860;2.380;2022-12-11T14:38:34;15.50;;;5.10;;
4208;SDS011;36320;48.860;2.380;2022-12-11T14:41:28;19.13;;;4.70;;
4208;SDS011;36320;48.860;2.380;2022-12-11T14:44:02;14.70;;;4.68;;
4208;SDS011;36320;48.860;2.380;2022-12-11T14:49:11;16.65;;;5.00;;
4208;SDS011;36320;48.860;2.380;2022-12-11T14:51:50;13.63;;;4.85;;
4208;SDS011;36320;48.860;2.380;2022-12-11T14:55:02;15.88;;;5.40;;
4208;SDS011;36320;48.860;2.380;2022-12-11T14:57:18;13.30;;;4.53;;
4208;SDS011;36320;48.860;2.380;2022-12-11T14:59:47;15.68;;;5.30;;
4208;SDS011;36320;48.860;2.380;2022-12-11T15:02:22;14.27;;;5.10;;
4208;SDS011;36320;48.860;2.380;2022-12-11T15:04:57;13.13;;;4.20;;
4208;SDS011;36320;48.860;2.380;2022-12-11T15:07:52;14.27;;;4.53;;
4208;SDS011;36320;48.860;2.380;2022-12-11T15:10:25;13.63;;;4.60;;
4208;SDS011;36320;48.860;2.380;2022-12-11T15:13:11;17.25;;;5.05;;
4208;SDS011;36320;48.860;2.380;2022-12-11T15:15:44;14.68;;;5.38;;
4208;SDS011;36320;48.860;2.380;2022-12-11T15:18:22;15.70;;;4.53;;
4208;SDS011;36320;48.860;2.380;2022-12-11T15:21:00;13.75;;;4.63;;
4208;SDS011;36320;48.860;2.380;2022-12-11T15:23:29;15.35;;;5.32;;
4208;SDS011;36320;48.860;2.380;2022-12-11T15:25:56;13.32;;;4.80;;
4208;SDS011;36320;48.860;2.380;2022-12-11T15:28:34;13.37;;;4.60;;
4208;SDS011;36320;48.860;2.380;2022-12-11T15:31:03;20.48;;;5.20;;
4208;SDS011;36320;48.860;2.380;2022-12-11T15:33:32;13.63;;;5.28;;
4208;SDS011;36320;48.860;2.380;2022-12-11T15:39:04;17.58;;;5.40;;
4208;SDS011;36320;48.860;2.380;2022-12-11T15:41:32;14.85;;;5.30;;
4208;SDS011;36320;48.860;2.380;2022-12-11T15:43:59;21.92;;;5.85;;
4208;SDS011;36320;48.860;2.380;2022-12-11T15:46:28;16.58;;;5.75;;
4208;SDS011;36320;48.860;2.380;2022-12-11T15:48:54;20.65;;;5.57;;
4208;SDS011;36320;48.860;2.380;2022-12-11T15:51:22;23.35;;;7.55;;
4208;SDS011;36320;48.860;2.380;2022-12-11T15:53:49;17.05;;;5.97;;
4208;SDS011;36320;48.860;2.380;2022-12-11T15:56:18;18.42;;;6.07;;
4208;SDS011;36320;48.860;2.380;2022-12-11T15:58:44;17.88;;;6.35;;
4208;SDS011;36320;48.860;2.380;2022-12-11T16:01:11;17.90;;;6.45;;
4208;SDS011;36320;48.860;2.380;2022-12-11T16:03:37;19.30;;;5.90;;
4208;SDS011;36320;48.860;2.380;2022-12-11T16:06:03;21.77;;;7.20;;
4208;SDS011;36320;48.860;2.380;2022-12-11T16:08:29;17.40;;;6.22;;
4208;SDS011;36320;48.860;2.380;2022-12-11T16:10:54;16.50;;;5.90;;
4208;SDS011;36320;48.860;2.380;2022-12-11T16:13:21;19.20;;;5.78;;
4208;SDS011;36320;48.860;2.380;2022-12-11T16:15:47;15.10;;;5.50;;
4208;SDS011;36320;48.860;2.380;2022-12-11T16:18:15;19.05;;;5.93;;
4208;SDS011;36320;48.860;2.380;2022-12-11T16:20:46;18.42;;;5.90;;
4208;SDS011;36320;48.860;2.380;2022-12-11T16:23:14;17.23;;;5.95;;
4208;SDS011;36320;48.860;2.380;2022-12-11T16:25:42;15.35;;;5.65;;
4208;SDS011;36320;48.860;2.380;2022-12-11T16:28:10;18.00;;;5.53;;
4208;SDS011;36320;48.860;2.380;2022-12-11T16:30:38;16.25;;;5.50;;
4208;SDS011;36320;48.860;2.380;2022-12-11T16:35:39;19.33;;;5.72;;
4208;SDS011;36320;48.860;2.380;2022-12-11T16:38:06;18.73;;;6.05;;
4208;SDS011;36320;48.860;2.380;2022-12-11T16:40:33;14.55;;;5.40;;
4208;SDS011;36320;48.860;2.380;2022-12-11T16:42:59;19.85;;;6.22;;
4208;SDS011;36320;48.860;2.380;2022-12-11T16:45:26;23.50;;;5.80;;
4208;SDS011;36320;48.860;2.380;2022-12-11T16:47:52;14.43;;;5.20;;
4208;SDS011;36320;48.860;2.380;2022-12-11T16:50:19;17.38;;;5.57;;
4208;SDS011;36320;48.860;2.380;2022-12-11T16:52:45;16.20;;;5.55;;
4208;SDS011;36320;48.860;2.380;2022-12-11T16:55:11;16.55;;;5.47;;
4208;SDS011;36320;48.860;2.380;2022-12-11T16:57:38;17.38;;;6.30;;
4208;SDS011;36320;48.860;2.380;2022-12-11T17:00:05;15.48;;;5.82;;
4208;SDS011;36320;48.860;2.380;2022-12-11T17:02:33;16.48;;;5.63;;
4208;SDS011;36320;48.860;2.380;2022-12-11T17:05:02;18.83;;;6.10;;
4208;SDS011;36320;48.860;2.380;2022-12-11T17:07:28;15.68;;;5.78;;
4208;SDS011;36320;48.860;2.380;2022-12-11T17:09:55;14.07;;;5.10;;
4208;SDS011;36320;48.860;2.380;2022-12-11T17:12:21;17.30;;;5.83;;
4208;SDS011;36320;48.860;2.380;2022-12-11T17:14:51;19.25;;;7.05;;
4208;SDS011;36320;48.860;2.380;2022-12-11T17:17:18;21.33;;;6.45;;
4208;SDS011;36320;48.860;2.380;2022-12-11T17:19:43;19.85;;;6.95;;
4208;SDS011;36320;48.860;2.380;2022-12-11T17:22:09;20.20;;;6.13;;
4208;SDS011;36320;48.860;2.380;2022-12-11T17:24:35;16.27;;;5.68;;
4208;SDS011;36320;48.860;2.380;2022-12-11T17:27:00;17.45;;;6.10;;
4208;SDS011;36320;48.860;2.380;2022-12-11T17:29:26;19.30;;;6.60;;
4208;SDS011;36320;48.860;2.380;2022-12-11T17:31:52;17.00;;;5.45;;
4208;SDS011;36320;48.860;2.380;2022-12-11T17:34:17;20.03;;;6.40;;
4208;SDS011;36320;48.860;2.380;2022-12-11T17:36:43;16.23;;;5.70;;
4208;SDS011;36320;48.860;2.380;2022-12-11T17:39:10;15.38;;;5.70;;
4208;SDS011;36320;48.860;2.380;2022-12-11T17:41:36;15.45;;;5.65;;
4208;SDS011;36320;48.860;2.380;2022-12-11T17:44:02;15.98;;;5.05;;
4208;SDS011;36320;48.860;2.380;2022-12-11T17:46:28;13.27;;;5.07;;
4208;SDS011;36320;48.860;2.380;2022-12-11T17:48:56;14.68;;;4.97;;
4208;SDS011;36320;48.860;2.380;2022-12-11T17:51:25;16.40;;;5.13;;
4208;SDS011;36320;48.860;2.380;2022-12-11T17:53:52;17.83;;;5.35;;
4208;SDS011;36320;48.860;2.380;2022-12-11T17:56:19;16.50;;;5.30;;
4208;SDS011;36320;48.860;2.380;2022-12-11T17:58:45;17.40;;;5.00;;
4208;SDS011;36320;48.860;2.380;2022-12-11T18:01:11;15.90;;;5.25;;
4208;SDS011;36320;48.860;2.380;2022-12-11T18:03:37;15.88;;;5.32;;
4208;SDS011;36320;48.860;2.380;2022-12-11T18:06:05;21.40;;;5.75;;
4208;SDS011;36320;48.860;2.380;2022-12-11T18:08:33;15.10;;;4.85;;
4208;SDS011;36320;48.860;2.380;2022-12-11T18:11:06;16.20;;;5.20;;
4208;SDS011;36320;48.860;2.380;2022-12-11T18:13:38;16.83;;;5.13;;
4208;SDS011;36320;48.860;2.380;2022-12-11T18:16:09;17.33;;;5.00;;
4208;SDS011;36320;48.860;2.380;2022-12-11T18:18:37;16.30;;;5.05;;
4208;SDS011;36320;48.860;2.380;2022-12-11T18:21:03;17.60;;;5.65;;
4208;SDS011;36320;48.860;2.380;2022-12-11T18:23:32;17.70;;;5.47;;
4208;SDS011;36320;48.860;2.380;2022-12-11T18:25:58;15.10;;;5.72;;
4208;SDS011;36320;48.860;2.380;2022-12-11T18:28:24;17.25;;;5.57;;
4208;SDS011;36320;48.860;2.380;2022-12-11T18:30:50;14.68;;;5.13;;
4208;SDS011;36320;48.860;2.380;2022-12-11T18:33:16;16.50;;;5.32;;
4208;SDS011;36320;48.860;2.380;2022-12-11T18:35:41;14.85;;;5.28;;